Pagrindinis puslapis
METAR-TAF:

METAR-TAF

Oro uostai :

Wainwright, Aliaska, Jungtinės Amerikos Valstijos

platuma: 70-38N, ilguma: 159-51W, Aukštis: 12 m

Dabartinis oras

Ataskaita buvo paskelbta 1 valandą ir 11 minutes, ne 07:53 UTC
Vėjas 11 kt iš Šiaurės Rytų su gūsio iki 21 kt
Temperatūra 3°C
Drėgmė 75%
Slėgis 1014 hPa
Matomumas: 16.1 km
Su prošvaistėmis ne aukštis 2500 ft
Apsiniaukę ne aukštis 3200 ft
lietus

METAR: PAWI 160753Z AUTO 04011G21KT 10SM -RA BKN025 OVC032 03/M01 A2993 RMK RAB06E26B42 SLP137 P0000 T00331011 TSNO VIA AUTODIAL

Laikas: 01:04 (09:04 UTC)


TAF: trūkstamas

Orai ataskaitas ir orų prognozės (METAR, TAF).

turimą stotys yra geltonos ir raudonos taškus žemėlapyje.

Perkelti pele per norėdami pamatyti stoties vardą.

Tada spustelėkite, norėdami matyti oro stebėjimo ir prognozės.

Norėdami pakeisti žemėlapį: spustelėkite ant žalios mygtukų su juodo kryžiaus žemyn,; žalią mygtuką su brūkšneliu, jei norite nutolinti; arba žalių rodyklių gretimoms žemėlapius.


METAR-TAF: